createdAt,value
2023-01-17T00:01:57.570Z,97824.56
2023-01-17T00:07:17.396Z,97816.81
2023-01-17T00:12:20.698Z,97836.00
2023-01-17T00:17:26.693Z,97820.22
2023-01-17T00:22:48.419Z,97830.44
2023-01-17T00:27:49.788Z,97835.41
2023-01-17T00:32:51.317Z,97844.22
2023-01-17T00:38:13.237Z,97866.03
2023-01-17T00:43:35.867Z,97870.63
2023-01-17T00:48:57.055Z,97873.50
2023-01-17T00:54:18.991Z,97890.84
2023-01-17T00:59:39.353Z,97912.69
2023-01-17T01:04:59.337Z,97918.84
2023-01-17T01:10:19.475Z,97923.59
2023-01-17T01:15:39.649Z,97938.41
2023-01-17T01:20:59.650Z,97939.88
2023-01-17T01:26:21.690Z,97955.84
2023-01-17T01:31:41.592Z,97953.81
2023-01-17T01:36:43.111Z,97977.63
2023-01-17T01:41:44.595Z,97998.28
2023-01-17T01:46:46.286Z,97988.75
2023-01-17T01:51:54.277Z,98013.50
2023-01-17T01:56:58.807Z,98005.16
2023-01-17T02:02:00.798Z,98021.31
2023-01-17T02:07:10.906Z,98027.59
2023-01-17T02:12:13.379Z,98038.69
2023-01-17T02:17:17.531Z,98040.00
2023-01-17T02:22:24.765Z,98052.59
2023-01-17T02:27:40.041Z,98056.56
2023-01-17T02:32:52.936Z,98055.13
2023-01-17T02:38:15.957Z,98068.69
2023-01-17T02:43:20.401Z,98066.09
2023-01-17T02:48:25.815Z,98066.09
2023-01-17T02:53:27.190Z,98081.00
2023-01-17T02:59:05.726Z,98090.47
2023-01-17T03:04:15.248Z,98102.94
2023-01-17T03:09:18.804Z,98103.47
2023-01-17T03:14:20.370Z,98110.78
2023-01-17T03:19:21.800Z,98108.94
2023-01-17T03:24:23.485Z,98110.31
2023-01-17T03:29:24.911Z,98106.03
2023-01-17T03:34:26.354Z,98106.03
2023-01-17T03:39:27.825Z,98112.41
2023-01-17T03:44:29.316Z,98122.22
2023-01-17T03:49:31.287Z,98129.47
2023-01-17T03:54:33.174Z,98124.19
2023-01-17T03:59:34.674Z,98134.16
2023-01-17T04:04:36.172Z,98137.19
2023-01-17T04:09:37.656Z,98160.56
2023-01-17T04:14:39.714Z,98146.38
2023-01-17T04:19:41.345Z,98137.06
2023-01-17T04:24:42.748Z,98154.81
2023-01-17T04:29:46.589Z,98161.59
2023-01-17T04:34:48.222Z,98157.13
2023-01-17T04:39:49.807Z,98160.72
2023-01-17T04:44:51.319Z,98160.00
2023-01-17T04:49:53.547Z,98155.31
2023-01-17T04:54:54.998Z,98148.59
2023-01-17T04:59:56.402Z,98155.69
2023-01-17T05:04:57.973Z,98153.19
2023-01-17T05:10:02.076Z,98159.50
2023-01-17T05:15:03.899Z,98156.59
2023-01-17T05:20:05.914Z,98170.38
2023-01-17T05:25:07.710Z,98172.19
2023-01-17T05:30:09.947Z,98175.94
2023-01-17T05:35:11.368Z,98184.03
2023-01-17T05:40:13.129Z,98175.22
2023-01-17T05:45:16.890Z,98187.19
2023-01-17T05:50:23.842Z,98182.44
2023-01-17T05:55:27.037Z,98185.31
2023-01-17T06:00:29.534Z,98193.34
2023-01-17T06:05:31.427Z,98190.56
2023-01-17T06:10:33.193Z,98189.38
2023-01-17T06:15:36.501Z,98194.78
2023-01-17T06:20:38.259Z,98193.19
2023-01-17T06:25:44.807Z,98197.06
2023-01-17T06:30:46.730Z,98206.78
2023-01-17T06:35:49.832Z,98212.59
2023-01-17T06:40:51.395Z,98216.97
2023-01-17T06:45:54.699Z,98218.09
2023-01-17T06:50:57.502Z,98226.69
2023-01-17T06:55:59.077Z,98233.06
2023-01-17T07:01:11.348Z,98236.22
2023-01-17T07:06:12.927Z,98239.28
2023-01-17T07:11:14.380Z,98236.84
2023-01-17T07:16:15.892Z,98239.63
2023-01-17T07:21:17.404Z,98233.72
2023-01-17T07:26:19.152Z,98249.53
2023-01-17T07:31:20.609Z,98248.75
2023-01-17T07:36:22.028Z,98237.44
2023-01-17T07:41:23.505Z,98237.91
2023-01-17T07:46:24.945Z,98234.72
2023-01-17T07:51:26.383Z,98229.94
2023-01-17T07:56:27.986Z,98237.09
2023-01-17T08:01:30.068Z,98242.25
2023-01-17T08:06:31.640Z,98256.03
2023-01-17T08:11:33.123Z,98253.09
2023-01-17T08:16:34.643Z,98251.97
2023-01-17T08:21:36.094Z,98251.81
2023-01-17T08:26:37.531Z,98245.47
2023-01-17T08:31:39.075Z,98255.22
2023-01-17T08:36:42.783Z,98260.13
2023-01-17T08:41:44.247Z,98254.13
2023-01-17T08:46:45.668Z,98266.09
2023-01-17T08:51:47.083Z,98274.06
2023-01-17T08:56:49.535Z,98271.69
2023-01-17T09:01:52.376Z,98271.84
2023-01-17T09:06:54.028Z,98270.03
2023-01-17T09:11:55.437Z,98271.03
2023-01-17T09:16:56.864Z,98276.28
2023-01-17T09:21:58.599Z,98281.31
2023-01-17T09:27:00.395Z,98276.38
2023-01-17T09:32:02.046Z,98274.53
2023-01-17T09:37:03.484Z,98272.81
2023-01-17T09:42:25.492Z,98283.31
2023-01-17T09:47:35.970Z,98281.94
2023-01-17T09:52:37.428Z,98285.84
2023-01-17T09:58:01.502Z,98295.38
2023-01-17T10:03:13.317Z,98296.97
2023-01-17T10:08:20.227Z,98300.53
2023-01-17T10:13:53.493Z,98303.34
2023-01-17T10:19:03.794Z,98307.81
2023-01-17T10:24:21.699Z,98306.81
2023-01-17T10:29:27.999Z,98303.38
2023-01-17T10:34:41.933Z,98294.41
2023-01-17T10:39:46.297Z,98294.84
2023-01-17T10:44:59.119Z,98290.72
2023-01-17T10:50:04.985Z,98286.16
2023-01-17T10:55:30.880Z,98279.88
2023-01-17T11:00:59.840Z,98282.56
2023-01-17T11:06:18.433Z,98282.00
2023-01-17T11:11:23.284Z,98267.00
2023-01-17T11:16:28.596Z,98262.75
2023-01-17T11:21:30.649Z,98264.56
2023-01-17T11:26:34.676Z,98267.41
2023-01-17T11:31:36.157Z,98266.06
2023-01-17T11:36:37.659Z,98253.53
2023-01-17T11:41:41.423Z,98252.00
2023-01-17T11:46:42.828Z,98251.38
2023-01-17T11:51:44.312Z,98250.19
2023-01-17T11:56:46.331Z,98244.47
2023-01-17T12:02:15.545Z,98245.47
2023-01-17T12:07:27.308Z,98239.78
2023-01-17T12:12:53.317Z,98232.31
2023-01-17T12:18:13.492Z,98237.22
2023-01-17T12:23:25.532Z,98239.09
2023-01-17T12:28:46.062Z,98222.97
2023-01-17T12:34:01.990Z,98226.22
2023-01-17T12:39:09.267Z,98223.72
2023-01-17T12:44:15.465Z,98217.69
2023-01-17T12:49:35.251Z,98212.41
2023-01-17T12:54:44.261Z,98219.19
2023-01-17T12:59:55.686Z,98212.47
2023-01-17T13:05:05.156Z,98206.88
2023-01-17T13:10:32.269Z,98228.44
2023-01-17T13:15:39.636Z,98217.56
2023-01-17T13:21:06.045Z,98225.31
2023-01-17T13:26:32.788Z,98215.09
2023-01-17T13:31:49.404Z,98215.09
2023-01-17T13:37:09.482Z,98213.41
2023-01-17T13:42:48.427Z,98216.31
2023-01-17T13:47:49.944Z,98223.41
2023-01-17T13:52:51.370Z,98228.69
2023-01-17T13:57:52.782Z,98227.66
2023-01-17T14:02:55.626Z,98231.53
2023-01-17T14:08:03.758Z,98236.66
2023-01-17T14:13:24.873Z,98236.19
2023-01-17T14:18:46.639Z,98237.44
2023-01-17T14:23:53.364Z,98243.47
2023-01-17T14:28:57.836Z,98241.63
2023-01-17T14:34:11.957Z,98236.81
2023-01-17T14:39:22.838Z,98247.44
2023-01-17T14:44:24.412Z,98231.84
2023-01-17T14:49:26.900Z,98238.66
2023-01-17T14:54:29.044Z,98248.78
2023-01-17T14:59:30.502Z,98251.69
2023-01-17T15:04:35.439Z,98248.59
2023-01-17T15:09:37.739Z,98250.47
2023-01-17T15:14:43.291Z,98250.75
2023-01-17T15:19:47.723Z,98262.41
2023-01-17T15:24:49.577Z,98251.31
2023-01-17T15:29:51.804Z,98249.22
2023-01-17T15:34:53.894Z,98248.66
2023-01-17T15:40:05.763Z,98251.38
2023-01-17T15:45:15.516Z,98249.88
2023-01-17T15:50:20.279Z,98248.19
2023-01-17T15:55:24.616Z,98252.59
2023-01-17T16:00:38.984Z,98256.66
2023-01-17T16:05:43.432Z,98265.38
2023-01-17T16:10:44.952Z,98271.91
2023-01-17T16:15:46.601Z,98278.38
2023-01-17T16:20:55.277Z,98281.44
2023-01-17T16:25:56.805Z,98279.13
2023-01-17T16:30:58.475Z,98285.13
2023-01-17T16:35:59.957Z,98288.06
2023-01-17T16:41:04.245Z,98296.50
2023-01-17T16:46:06.222Z,98295.03
2023-01-17T16:51:08.321Z,98303.22
2023-01-17T16:56:13.485Z,98312.53
2023-01-17T17:01:17.219Z,98310.16
2023-01-17T17:06:18.794Z,98308.97
2023-01-17T17:11:22.984Z,98314.00
2023-01-17T17:16:29.896Z,98311.41
2023-01-17T17:21:32.998Z,98331.34
2023-01-17T17:26:36.572Z,98326.56
2023-01-17T17:31:39.857Z,98328.97
2023-01-17T17:36:42.015Z,98333.28
2023-01-17T17:41:45.653Z,98351.94
2023-01-17T17:46:49.236Z,98350.47
2023-01-17T17:51:50.728Z,98354.25
2023-01-17T17:56:52.144Z,98359.84
2023-01-17T18:01:53.800Z,98366.19
2023-01-17T18:06:57.307Z,98368.66
2023-01-17T18:11:58.781Z,98364.38
2023-01-17T18:17:00.305Z,98383.00
2023-01-17T18:22:03.330Z,98385.78
2023-01-17T18:27:04.805Z,98388.25
2023-01-17T18:32:06.304Z,98391.53
2023-01-17T18:37:07.762Z,98391.63
2023-01-17T18:42:11.530Z,98397.25
2023-01-17T18:47:13.055Z,98398.97
2023-01-17T18:52:14.933Z,98402.94
2023-01-17T18:57:16.368Z,98401.75
2023-01-17T19:02:19.432Z,98410.88
2023-01-17T19:07:21.593Z,98413.22
2023-01-17T19:12:23.014Z,98402.59
2023-01-17T19:17:24.451Z,98404.09
2023-01-17T19:22:25.863Z,98411.78
2023-01-17T19:27:27.369Z,98413.31
2023-01-17T19:32:28.881Z,98422.19
2023-01-17T19:37:30.290Z,98419.09
2023-01-17T19:42:31.716Z,98419.09
2023-01-17T19:47:33.786Z,98437.06
2023-01-17T19:52:35.929Z,98439.41
2023-01-17T19:57:37.557Z,98439.41
2023-01-17T20:02:39.367Z,98452.44
2023-01-17T20:07:40.877Z,98456.53
2023-01-17T20:12:42.392Z,98457.47
2023-01-17T20:17:43.918Z,98457.47
2023-01-17T20:27:46.797Z,98457.47
2023-01-17T20:32:48.209Z,98457.47
2023-01-17T20:37:52.587Z,98457.47
2023-01-17T20:42:54.050Z,98492.44
2023-01-17T20:47:55.843Z,98500.47
2023-01-17T20:52:57.482Z,98500.47
2023-01-17T20:57:59.680Z,98500.47
2023-01-17T21:03:01.570Z,98498.19
2023-01-17T21:08:03.839Z,57965.28
2023-01-17T21:13:05.259Z,76278.38
2023-01-17T21:18:06.710Z,98510.13
2023-01-17T21:23:10.063Z,98510.13
2023-01-17T21:28:11.564Z,76274.31
2023-01-17T21:33:13.158Z,98510.13
2023-01-17T21:38:15.211Z,76315.09
2023-01-17T21:43:16.670Z,57965.28
2023-01-17T21:48:18.147Z,76315.09
2023-01-17T21:53:19.666Z,98528.16
2023-01-17T21:58:39.973Z,76315.09
2023-01-17T22:03:42.101Z,57965.28
2023-01-17T22:13:46.092Z,57965.28
2023-01-17T22:18:47.836Z,57965.28
2023-01-17T22:23:54.578Z,98528.16
2023-01-17T22:28:59.109Z,57965.28
2023-01-17T22:39:04.512Z,57965.28
2023-01-17T22:44:07.447Z,57965.28
2023-01-17T22:49:13.163Z,57965.28
2023-01-17T22:54:14.818Z,57965.28
2023-01-17T22:59:16.332Z,57965.28
2023-01-17T23:04:17.766Z,57965.28
2023-01-17T23:09:19.203Z,57965.28
2023-01-17T23:14:52.371Z,57965.28
2023-01-17T23:19:56.775Z,57965.28
2023-01-17T23:25:06.963Z,112849.09
2023-01-17T23:30:12.554Z,57965.28
2023-01-17T23:35:14.970Z,57965.28
2023-01-17T23:45:19.079Z,57965.28
2023-01-17T23:50:20.712Z,57965.28
